sensor_id;sensor_type;location;lat;lon;timestamp;pressure;altitude;pressure_sealevel;temperature;humidity
788;BME280;16074;42.708;23.312;2023-04-22T00:01:45;140668.16;;;9.77;100.00
788;BME280;16074;42.708;23.312;2023-04-22T00:04:13;140621.25;;;9.57;100.00
788;BME280;16074;42.708;23.312;2023-04-22T00:06:42;140633.28;;;9.62;100.00
788;BME280;16074;42.708;23.312;2023-04-22T00:09:11;140657.38;;;9.72;100.00
788;BME280;16074;42.708;23.312;2023-04-22T00:11:41;140697.06;;;9.89;100.00
788;BME280;16074;42.708;23.312;2023-04-22T00:14:09;140713.91;;;9.96;100.00
788;BME280;16074;42.708;23.312;2023-04-22T00:16:37;140715.09;;;9.96;100.00
788;BME280;16074;42.708;23.312;2023-04-22T00:19:06;140692.25;;;9.87;100.00
788;BME280;16074;42.708;23.312;2023-04-22T00:21:35;140670.56;;;9.78;100.00
788;BME280;16074;42.708;23.312;2023-04-22T00:24:04;140688.66;;;9.85;100.00
788;BME280;16074;42.708;23.312;2023-04-22T00:26:32;140687.44;;;9.85;100.00
788;BME280;16074;42.708;23.312;2023-04-22T00:29:02;140675.41;;;9.80;100.00
788;BME280;16074;42.708;23.312;2023-04-22T00:31:30;140701.88;;;9.91;100.00
788;BME280;16074;42.708;23.312;2023-04-22T00:33:59;140722.31;;;9.99;100.00
788;BME280;16074;42.708;23.312;2023-04-22T00:36:27;140694.66;;;9.88;100.00
788;BME280;16074;42.708;23.312;2023-04-22T00:38:55;140694.66;;;9.88;100.00
788;BME280;16074;42.708;23.312;2023-04-22T00:41:23;140688.66;;;9.85;100.00
788;BME280;16074;42.708;23.312;2023-04-22T00:43:52;140657.38;;;9.72;100.00
788;BME280;16074;42.708;23.312;2023-04-22T00:46:21;140612.84;;;9.54;100.00
788;BME280;16074;42.708;23.312;2023-04-22T00:48:51;140617.66;;;9.56;100.00
788;BME280;16074;42.708;23.312;2023-04-22T00:51:19;140636.88;;;9.64;100.00
788;BME280;16074;42.708;23.312;2023-04-22T00:53:48;140640.50;;;9.65;100.00
788;BME280;16074;42.708;23.312;2023-04-22T00:56:16;140618.84;;;9.56;100.00
788;BME280;16074;42.708;23.312;2023-04-22T00:58:44;140559.91;;;9.32;100.00
788;BME280;16074;42.708;23.312;2023-04-22T01:01:13;140534.69;;;9.22;100.00
788;BME280;16074;42.708;23.312;2023-04-22T01:03:43;140535.84;;;9.22;100.00
788;BME280;16074;42.708;23.312;2023-04-22T01:06:13;140514.22;;;9.13;100.00
788;BME280;16074;42.708;23.312;2023-04-22T01:08:42;140526.25;;;9.18;100.00
788;BME280;16074;42.708;23.312;2023-04-22T01:11:10;140545.47;;;9.26;100.00
788;BME280;16074;42.708;23.312;2023-04-22T01:13:39;140529.88;;;9.20;100.00
788;BME280;16074;42.708;23.312;2023-04-22T01:16:08;140539.50;;;9.24;100.00
788;BME280;16074;42.708;23.312;2023-04-22T01:18:38;140557.50;;;9.31;100.00
788;BME280;16074;42.708;23.312;2023-04-22T01:21:07;140551.53;;;9.29;100.00
788;BME280;16074;42.708;23.312;2023-04-22T01:23:37;140553.94;;;9.30;100.00
788;BME280;16074;42.708;23.312;2023-04-22T01:26:05;140516.63;;;9.14;100.00
788;BME280;16074;42.708;23.312;2023-04-22T01:28:33;140461.34;;;8.91;100.00
788;BME280;16074;42.708;23.312;2023-04-22T01:31:02;140404.84;;;8.68;100.00
788;BME280;16074;42.708;23.312;2023-04-22T01:33:30;140355.56;;;8.47;100.00
788;BME280;16074;42.708;23.312;2023-04-22T01:35:59;140313.47;;;8.30;100.00
788;BME280;16074;42.708;23.312;2023-04-22T01:38:27;140303.88;;;8.26;100.00
788;BME280;16074;42.708;23.312;2023-04-22T01:41:00;140305.09;;;8.27;100.00
788;BME280;16074;42.708;23.312;2023-04-22T01:43:30;140302.69;;;8.26;100.00
788;BME280;16074;42.708;23.312;2023-04-22T01:45:59;140317.09;;;8.31;100.00
788;BME280;16074;42.708;23.312;2023-04-22T01:48:28;140332.72;;;8.38;100.00
788;BME280;16074;42.708;23.312;2023-04-22T01:50:56;140308.69;;;8.28;100.00
788;BME280;16074;42.708;23.312;2023-04-22T01:53:25;140326.72;;;8.35;100.00
788;BME280;16074;42.708;23.312;2023-04-22T01:55:53;140359.16;;;8.49;100.00
788;BME280;16074;42.708;23.312;2023-04-22T01:58:23;140390.41;;;8.62;100.00
788;BME280;16074;42.708;23.312;2023-04-22T02:00:51;140416.88;;;8.73;100.00
788;BME280;16074;42.708;23.312;2023-04-22T02:03:19;140426.47;;;8.77;100.00
788;BME280;16074;42.708;23.312;2023-04-22T02:05:48;140436.06;;;8.81;100.00
788;BME280;16074;42.708;23.312;2023-04-22T02:08:17;140450.50;;;8.87;100.00
788;BME280;16074;42.708;23.312;2023-04-22T02:10:45;140472.13;;;8.96;100.00
788;BME280;16074;42.708;23.312;2023-04-22T02:13:13;140508.22;;;9.11;100.00
788;BME280;16074;42.708;23.312;2023-04-22T02:15:43;140499.78;;;9.07;100.00
788;BME280;16074;42.708;23.312;2023-04-22T02:18:11;140505.81;;;9.10;100.00
788;BME280;16074;42.708;23.312;2023-04-22T02:20:40;140514.22;;;9.13;100.00
788;BME280;16074;42.708;23.312;2023-04-22T02:23:09;140556.34;;;9.31;100.00
788;BME280;16074;42.708;23.312;2023-04-22T02:25:38;140575.53;;;9.39;100.00
788;BME280;16074;42.708;23.312;2023-04-22T02:28:06;140586.38;;;9.43;100.00
788;BME280;16074;42.708;23.312;2023-04-22T02:30:35;140599.59;;;9.48;100.00
788;BME280;16074;42.708;23.312;2023-04-22T02:33:05;140618.84;;;9.56;100.00
788;BME280;16074;42.708;23.312;2023-04-22T02:35:33;140634.53;;;9.63;100.00
788;BME280;16074;42.708;23.312;2023-04-22T02:38:02;140645.31;;;9.67;100.00
788;BME280;16074;42.708;23.312;2023-04-22T02:40:30;140652.56;;;9.70;100.00
788;BME280;16074;42.708;23.312;2023-04-22T02:42:59;140670.56;;;9.78;100.00
788;BME280;16074;42.708;23.312;2023-04-22T02:45:27;140685.03;;;9.84;100.00
788;BME280;16074;42.708;23.312;2023-04-22T02:47:55;140688.66;;;9.85;100.00
788;BME280;16074;42.708;23.312;2023-04-22T02:50:25;140683.84;;;9.83;100.00
788;BME280;16074;42.708;23.312;2023-04-22T02:52:53;140683.84;;;9.83;100.00
788;BME280;16074;42.708;23.312;2023-04-22T02:55:22;140700.69;;;9.90;100.00
788;BME280;16074;42.708;23.312;2023-04-22T02:57:51;140697.06;;;9.89;100.00
788;BME280;16074;42.708;23.312;2023-04-22T03:00:19;140709.09;;;9.94;100.00
788;BME280;16074;42.708;23.312;2023-04-22T03:02:48;140659.78;;;9.73;100.00
788;BME280;16074;42.708;23.312;2023-04-22T03:05:19;140597.19;;;9.47;100.00
788;BME280;16074;42.708;23.312;2023-04-22T03:07:50;140543.06;;;9.25;100.00
788;BME280;16074;42.708;23.312;2023-04-22T03:10:18;140519.03;;;9.15;100.00
788;BME280;16074;42.708;23.312;2023-04-22T03:12:46;140495.00;;;9.05;100.00
788;BME280;16074;42.708;23.312;2023-04-22T03:15:15;140462.50;;;8.92;100.00
788;BME280;16074;42.708;23.312;2023-04-22T03:17:47;140430.06;;;8.78;100.00
788;BME280;16074;42.708;23.312;2023-04-22T03:20:18;140412.06;;;8.71;100.00
788;BME280;16074;42.708;23.312;2023-04-22T03:22:47;140378.38;;;8.57;100.00
788;BME280;16074;42.708;23.312;2023-04-22T03:25:17;140376.00;;;8.56;100.00
788;BME280;16074;42.708;23.312;2023-04-22T03:27:51;140418.03;;;8.73;100.00
788;BME280;16074;42.708;23.312;2023-04-22T03:30:19;140422.84;;;8.75;100.00
788;BME280;16074;42.708;23.312;2023-04-22T03:32:48;140430.06;;;8.78;100.00
788;BME280;16074;42.708;23.312;2023-04-22T03:35:34;140456.53;;;8.89;100.00
788;BME280;16074;42.708;23.312;2023-04-22T03:38:02;140481.75;;;9.00;100.00
788;BME280;16074;42.708;23.312;2023-04-22T03:40:35;140505.81;;;9.10;100.00
788;BME280;16074;42.708;23.312;2023-04-22T03:43:12;140479.34;;;8.99;100.00
788;BME280;16074;42.708;23.312;2023-04-22T03:45:43;140507.00;;;9.10;100.00
788;BME280;16074;42.708;23.312;2023-04-22T03:48:19;140507.00;;;9.10;100.00
788;BME280;16074;42.708;23.312;2023-04-22T03:50:50;140498.59;;;9.07;100.00
788;BME280;16074;42.708;23.312;2023-04-22T03:53:18;140487.78;;;9.02;100.00
788;BME280;16074;42.708;23.312;2023-04-22T03:55:48;140510.63;;;9.12;100.00
788;BME280;16074;42.708;23.312;2023-04-22T03:58:18;140527.47;;;9.19;100.00
788;BME280;16074;42.708;23.312;2023-04-22T04:00:47;140533.44;;;9.21;100.00
788;BME280;16074;42.708;23.312;2023-04-22T04:03:17;140534.69;;;9.22;100.00
788;BME280;16074;42.708;23.312;2023-04-22T04:05:49;140541.91;;;9.25;100.00
788;BME280;16074;42.708;23.312;2023-04-22T04:08:19;140552.69;;;9.29;100.00
788;BME280;16074;42.708;23.312;2023-04-22T04:10:49;140546.72;;;9.27;100.00
788;BME280;16074;42.708;23.312;2023-04-22T04:13:17;140553.94;;;9.30;100.00
788;BME280;16074;42.708;23.312;2023-04-22T04:16:06;140574.34;;;9.38;100.00
788;BME280;16074;42.708;23.312;2023-04-22T04:18:37;140570.72;;;9.37;100.00
788;BME280;16074;42.708;23.312;2023-04-22T04:21:05;140561.16;;;9.33;100.00
788;BME280;16074;42.708;23.312;2023-04-22T04:23:38;140532.28;;;9.21;100.00
788;BME280;16074;42.708;23.312;2023-04-22T04:26:08;140538.25;;;9.23;100.00
788;BME280;16074;42.708;23.312;2023-04-22T04:28:40;140525.06;;;9.18;100.00
788;BME280;16074;42.708;23.312;2023-04-22T04:31:09;140535.84;;;9.22;100.00
788;BME280;16074;42.708;23.312;2023-04-22T04:33:37;140539.50;;;9.24;100.00
788;BME280;16074;42.708;23.312;2023-04-22T04:36:07;140537.09;;;9.23;100.00
788;BME280;16074;42.708;23.312;2023-04-22T04:38:36;140553.94;;;9.30;100.00
788;BME280;16074;42.708;23.312;2023-04-22T04:41:05;140557.50;;;9.31;100.00
788;BME280;16074;42.708;23.312;2023-04-22T04:43:37;140553.94;;;9.30;100.00
788;BME280;16074;42.708;23.312;2023-04-22T04:46:24;140567.13;;;9.35;100.00
788;BME280;16074;42.708;23.312;2023-04-22T04:48:52;140558.75;;;9.32;100.00
788;BME280;16074;42.708;23.312;2023-04-22T04:51:21;140574.34;;;9.38;100.00
788;BME280;16074;42.708;23.312;2023-04-22T04:53:55;140577.94;;;9.40;100.00
788;BME280;16074;42.708;23.312;2023-04-22T04:56:26;140546.72;;;9.27;100.00
788;BME280;16074;42.708;23.312;2023-04-22T04:58:56;140586.38;;;9.43;100.00
788;BME280;16074;42.708;23.312;2023-04-22T05:01:26;140555.09;;;9.30;100.00
788;BME280;16074;42.708;23.312;2023-04-22T05:04:00;140592.38;;;9.45;100.00
788;BME280;16074;42.708;23.312;2023-04-22T05:06:29;140618.84;;;9.56;100.00
788;BME280;16074;42.708;23.312;2023-04-22T05:09:03;140538.25;;;9.23;100.00
788;BME280;16074;42.708;23.312;2023-04-22T05:11:34;140574.34;;;9.38;100.00
788;BME280;16074;42.708;23.312;2023-04-22T05:14:11;140604.41;;;9.50;100.00
788;BME280;16074;42.708;23.312;2023-04-22T05:16:41;140623.66;;;9.58;100.00
788;BME280;16074;42.708;23.312;2023-04-22T05:19:10;140663.34;;;9.75;100.00
788;BME280;16074;42.708;23.312;2023-04-22T05:21:38;140646.50;;;9.68;100.00
788;BME280;16074;42.708;23.312;2023-04-22T05:24:06;140633.28;;;9.62;100.00
788;BME280;16074;42.708;23.312;2023-04-22T05:26:35;140674.22;;;9.79;100.00
788;BME280;16074;42.708;23.312;2023-04-22T05:29:11;140662.19;;;9.74;100.00
788;BME280;16074;42.708;23.312;2023-04-22T05:31:40;140674.22;;;9.79;100.00
788;BME280;16074;42.708;23.312;2023-04-22T05:34:09;140706.69;;;9.93;100.00
788;BME280;16074;42.708;23.312;2023-04-22T05:36:38;140738.03;;;10.06;100.00
788;BME280;16074;42.708;23.312;2023-04-22T05:39:07;140758.47;;;10.14;100.00
788;BME280;16074;42.708;23.312;2023-04-22T05:41:35;140798.19;;;10.31;100.00
788;BME280;16074;42.708;23.312;2023-04-22T05:44:07;140824.69;;;10.42;100.00
788;BME280;16074;42.708;23.312;2023-04-22T05:46:37;140821.09;;;10.40;100.00
788;BME280;16074;42.708;23.312;2023-04-22T05:49:06;140806.66;;;10.34;100.00
788;BME280;16074;42.708;23.312;2023-04-22T05:51:53;140815.06;;;10.38;100.00
788;BME280;16074;42.708;23.312;2023-04-22T05:54:27;140823.50;;;10.41;100.00
788;BME280;16074;42.708;23.312;2023-04-22T05:56:55;140800.59;;;10.32;100.00
788;BME280;16074;42.708;23.312;2023-04-22T05:59:24;140781.34;;;10.24;100.00
788;BME280;16074;42.708;23.312;2023-04-22T06:01:54;140776.53;;;10.22;100.00
788;BME280;16074;42.708;23.312;2023-04-22T06:04:23;140794.59;;;10.29;100.00
788;BME280;16074;42.708;23.312;2023-04-22T06:06:52;140842.72;;;10.49;100.00
788;BME280;16074;42.708;23.312;2023-04-22T06:09:20;140857.19;;;10.55;100.00
788;BME280;16074;42.708;23.312;2023-04-22T06:11:49;140881.28;;;10.65;100.00
788;BME280;16074;42.708;23.312;2023-04-22T06:14:18;140893.31;;;10.70;100.00
788;BME280;16074;42.708;23.312;2023-04-22T06:16:46;140912.59;;;10.78;100.00
788;BME280;16074;42.708;23.312;2023-04-22T06:19:17;140939.09;;;10.89;100.00
788;BME280;16074;42.708;23.312;2023-04-22T06:21:46;140982.44;;;11.07;100.00
788;BME280;16074;42.708;23.312;2023-04-22T06:24:15;141016.19;;;11.21;100.00
788;BME280;16074;42.708;23.312;2023-04-22T06:26:43;141063.16;;;11.40;100.00
788;BME280;16074;42.708;23.312;2023-04-22T06:29:12;141101.78;;;11.56;99.10
788;BME280;16074;42.708;23.312;2023-04-22T06:31:40;141131.91;;;11.69;97.86
788;BME280;16074;42.708;23.312;2023-04-22T06:34:08;141178.97;;;11.88;96.65
788;BME280;16074;42.708;23.312;2023-04-22T06:36:39;141234.38;;;12.11;95.63
788;BME280;16074;42.708;23.312;2023-04-22T06:39:07;141283.81;;;12.31;94.43
788;BME280;16074;42.708;23.312;2023-04-22T06:41:52;141324.84;;;12.48;93.08
788;BME280;16074;42.708;23.312;2023-04-22T06:44:34;141371.88;;;12.68;91.57
788;BME280;16074;42.708;23.312;2023-04-22T06:47:25;141451.59;;;13.01;89.64
788;BME280;16074;42.708;23.312;2023-04-22T06:50:14;141501.06;;;13.21;88.00
788;BME280;16074;42.708;23.312;2023-04-22T06:52:52;141561.41;;;13.46;85.98
788;BME280;16074;42.708;23.312;2023-04-22T06:55:22;141590.41;;;13.58;84.23
788;BME280;16074;42.708;23.312;2023-04-22T06:57:51;141656.81;;;13.85;83.84
788;BME280;16074;42.708;23.312;2023-04-22T07:00:19;141687.00;;;13.98;82.22
788;BME280;16074;42.708;23.312;2023-04-22T07:02:47;141708.75;;;14.07;81.29
788;BME280;16074;42.708;23.312;2023-04-22T07:05:16;141757.13;;;14.27;78.71
788;BME280;16074;42.708;23.312;2023-04-22T07:07:45;141784.91;;;14.38;77.92
788;BME280;16074;42.708;23.312;2023-04-22T07:10:19;141858.63;;;14.68;77.14
788;BME280;16074;42.708;23.312;2023-04-22T07:13:07;141932.38;;;14.99;75.16
788;BME280;16074;42.708;23.312;2023-04-22T07:15:36;141962.59;;;15.11;74.50
788;BME280;16074;42.708;23.312;2023-04-22T07:18:05;142055.78;;;15.50;71.42
788;BME280;16074;42.708;23.312;2023-04-22T07:20:33;142061.84;;;15.52;70.92
788;BME280;16074;42.708;23.312;2023-04-22T07:23:02;142122.31;;;15.77;70.10
788;BME280;16074;42.708;23.312;2023-04-22T07:25:31;142211.88;;;16.14;68.98
788;BME280;16074;42.708;23.312;2023-04-22T07:27:59;142284.53;;;16.44;68.18
788;BME280;16074;42.708;23.312;2023-04-22T07:30:28;142383.81;;;16.84;64.47
788;BME280;16074;42.708;23.312;2023-04-22T07:32:56;142463.78;;;17.17;63.72
788;BME280;16074;42.708;23.312;2023-04-22T07:35:24;142560.72;;;17.57;62.25
788;BME280;16074;42.708;23.312;2023-04-22T07:37:54;142584.97;;;17.67;59.36
788;BME280;16074;42.708;23.312;2023-04-22T07:40:22;142647.97;;;17.93;58.21
788;BME280;16074;42.708;23.312;2023-04-22T07:42:52;142688.03;;;18.09;57.82
788;BME280;16074;42.708;23.312;2023-04-22T07:45:20;142641.94;;;17.91;57.24
788;BME280;16074;42.708;23.312;2023-04-22T07:47:48;142778.97;;;18.47;56.27
788;BME280;16074;42.708;23.312;2023-04-22T07:50:17;142819.03;;;18.63;54.89
788;BME280;16074;42.708;23.312;2023-04-22T07:52:45;142806.91;;;18.58;53.19
788;BME280;16074;42.708;23.312;2023-04-22T07:55:13;142559.50;;;17.57;56.04
788;BME280;16074;42.708;23.312;2023-04-22T07:57:41;142757.19;;;18.38;53.89
788;BME280;16074;42.708;23.312;2023-04-22T08:00:13;142823.88;;;18.65;52.54
788;BME280;16074;42.708;23.312;2023-04-22T08:02:41;142821.47;;;18.64;52.45
788;BME280;16074;42.708;23.312;2023-04-22T08:05:10;142897.88;;;18.96;51.62
788;BME280;16074;42.708;23.312;2023-04-22T08:07:38;142685.59;;;18.08;51.09
788;BME280;16074;42.708;23.312;2023-04-22T08:10:07;142783.81;;;18.49;51.20
788;BME280;16074;42.708;23.312;2023-04-22T08:12:36;142850.53;;;18.76;50.70
788;BME280;16074;42.708;23.312;2023-04-22T08:15:05;142844.50;;;18.74;49.66
788;BME280;16074;42.708;23.312;2023-04-22T08:17:35;142707.38;;;18.17;50.67
788;BME280;16074;42.708;23.312;2023-04-22T08:20:05;142783.81;;;18.49;50.21
788;BME280;16074;42.708;23.312;2023-04-22T08:22:34;142723.16;;;18.24;51.65
788;BME280;16074;42.708;23.312;2023-04-22T08:25:03;142677.06;;;18.05;51.71
788;BME280;16074;42.708;23.312;2023-04-22T08:27:32;142821.47;;;18.64;49.70
788;BME280;16074;42.708;23.312;2023-04-22T08:30:00;142740.19;;;18.31;50.47
788;BME280;16074;42.708;23.312;2023-04-22T08:32:29;142805.66;;;18.58;50.24
788;BME280;16074;42.708;23.312;2023-04-22T08:34:59;142798.38;;;18.55;50.09
788;BME280;16074;42.708;23.312;2023-04-22T08:37:31;142924.53;;;19.07;49.02
788;BME280;16074;42.708;23.312;2023-04-22T08:40:01;143054.47;;;19.60;48.48
788;BME280;16074;42.708;23.312;2023-04-22T08:42:30;143180.78;;;20.12;46.43
788;BME280;16074;42.708;23.312;2023-04-22T08:44:59;143195.38;;;20.18;45.78
788;BME280;16074;42.708;23.312;2023-04-22T08:47:30;143127.28;;;19.90;45.99
788;BME280;16074;42.708;23.312;2023-04-22T08:50:01;143230.59;;;20.32;45.56
788;BME280;16074;42.708;23.312;2023-04-22T08:52:31;143389.78;;;20.97;45.08
788;BME280;16074;42.708;23.312;2023-04-22T08:54:59;143393.47;;;20.99;42.20
788;BME280;16074;42.708;23.312;2023-04-22T08:57:29;143213.56;;;20.25;43.49
788;BME280;16074;42.708;23.312;2023-04-22T08:59:58;143383.72;;;20.95;42.96
788;BME280;16074;42.708;23.312;2023-04-22T09:02:27;143479.75;;;21.34;42.56
788;BME280;16074;42.708;23.312;2023-04-22T09:05:01;143603.84;;;21.85;41.24
788;BME280;16074;42.708;23.312;2023-04-22T09:07:32;143671.94;;;22.13;40.62
788;BME280;16074;42.708;23.312;2023-04-22T09:10:02;143706.00;;;22.27;39.84
788;BME280;16074;42.708;23.312;2023-04-22T09:12:31;143740.13;;;22.41;39.75
788;BME280;16074;42.708;23.312;2023-04-22T09:14:59;143765.69;;;22.51;39.09
788;BME280;16074;42.708;23.312;2023-04-22T09:17:31;143871.59;;;22.94;38.88
788;BME280;16074;42.708;23.312;2023-04-22T09:20:03;144011.63;;;23.52;37.52
788;BME280;16074;42.708;23.312;2023-04-22T09:22:37;144015.31;;;23.53;37.35
788;BME280;16074;42.708;23.312;2023-04-22T09:25:16;144016.50;;;23.54;37.78
788;BME280;16074;42.708;23.312;2023-04-22T09:27:48;144048.19;;;23.67;37.58
788;BME280;16074;42.708;23.312;2023-04-22T09:30:21;144029.94;;;23.59;37.68
788;BME280;16074;42.708;23.312;2023-04-22T09:32:52;144050.63;;;23.68;37.00
788;BME280;16074;42.708;23.312;2023-04-22T09:35:30;144021.38;;;23.56;36.45
788;BME280;16074;42.708;23.312;2023-04-22T09:37:59;144072.56;;;23.77;35.85
788;BME280;16074;42.708;23.312;2023-04-22T09:40:29;144105.50;;;23.90;34.93
788;BME280;16074;42.708;23.312;2023-04-22T09:43:00;144148.19;;;24.08;34.83
788;BME280;16074;42.708;23.312;2023-04-22T09:45:30;144171.31;;;24.17;35.02
788;BME280;16074;42.708;23.312;2023-04-22T09:48:02;144143.31;;;24.06;35.27
788;BME280;16074;42.708;23.312;2023-04-22T09:50:32;144187.13;;;24.23;36.00
788;BME280;16074;42.708;23.312;2023-04-22T09:53:02;144201.78;;;24.29;34.04
788;BME280;16074;42.708;23.312;2023-04-22T09:55:33;144176.19;;;24.19;33.15
788;BME280;16074;42.708;23.312;2023-04-22T09:58:06;144134.75;;;24.02;33.55
788;BME280;16074;42.708;23.312;2023-04-22T10:00:38;144121.38;;;23.97;33.38
788;BME280;16074;42.708;23.312;2023-04-22T10:03:07;144068.94;;;23.75;34.16
788;BME280;16074;42.708;23.312;2023-04-22T10:05:38;144003.13;;;23.48;33.30
788;BME280;16074;42.708;23.312;2023-04-22T10:08:08;144112.81;;;23.93;32.74
788;BME280;16074;42.708;23.312;2023-04-22T10:10:37;144107.94;;;23.91;32.22
788;BME280;16074;42.708;23.312;2023-04-22T10:13:06;144079.94;;;23.80;31.95
788;BME280;16074;42.708;23.312;2023-04-22T10:15:38;144114.06;;;23.94;31.64
788;BME280;16074;42.708;23.312;2023-04-22T10:18:09;144187.13;;;24.23;31.32
788;BME280;16074;42.708;23.312;2023-04-22T10:20:41;144271.28;;;24.58;30.36
788;BME280;16074;42.708;23.312;2023-04-22T10:23:13;144271.28;;;24.58;32.20
788;BME280;16074;42.708;23.312;2023-04-22T10:25:41;144277.41;;;24.60;33.29
788;BME280;16074;42.708;23.312;2023-04-22T10:28:10;144271.28;;;24.58;32.28
788;BME280;16074;42.708;23.312;2023-04-22T10:30:39;144334.72;;;24.84;31.74
788;BME280;16074;42.708;23.312;2023-04-22T10:33:36;144392.00;;;25.07;30.92
788;BME280;16074;42.708;23.312;2023-04-22T10:36:08;144407.84;;;25.14;30.69
788;BME280;16074;42.708;23.312;2023-04-22T10:38:39;144495.75;;;25.49;30.74
788;BME280;16074;42.708;23.312;2023-04-22T10:41:12;144634.84;;;26.06;30.56
788;BME280;16074;42.708;23.312;2023-04-22T10:43:43;144782.63;;;26.67;30.21
788;BME280;16074;42.708;23.312;2023-04-22T10:49:19;144962.22;;;27.40;28.75
788;BME280;16074;42.708;23.312;2023-04-22T10:51:50;145090.59;;;27.92;28.51
788;BME280;16074;42.708;23.312;2023-04-22T10:54:56;145209.19;;;28.40;27.00
788;BME280;16074;42.708;23.312;2023-04-22T10:57:35;145184.78;;;28.30;26.37
788;BME280;16074;42.708;23.312;2023-04-22T11:00:39;145293.56;;;28.75;26.38
788;BME280;16074;42.708;23.312;2023-04-22T11:03:25;145411.03;;;29.23;26.13
788;BME280;16074;42.708;23.312;2023-04-22T11:06:14;145341.31;;;28.94;26.29
788;BME280;16074;42.708;23.312;2023-04-22T11:08:45;145365.78;;;29.04;25.50
788;BME280;16074;42.708;23.312;2023-04-22T11:11:15;145447.75;;;29.37;25.98
788;BME280;16074;42.708;23.312;2023-04-22T11:13:46;145352.34;;;28.99;26.33
788;BME280;16074;42.708;23.312;2023-04-22T11:16:16;145281.34;;;28.70;26.25
788;BME280;16074;42.708;23.312;2023-04-22T11:18:48;145265.47;;;28.63;27.08
788;BME280;16074;42.708;23.312;2023-04-22T11:21:17;145110.16;;;28.00;28.47
788;BME280;16074;42.708;23.312;2023-04-22T11:23:50;145079.56;;;27.88;28.56
788;BME280;16074;42.708;23.312;2023-04-22T11:26:31;145066.16;;;27.82;29.20
788;BME280;16074;42.708;23.312;2023-04-22T11:29:00;145029.47;;;27.67;29.56
788;BME280;16074;42.708;23.312;2023-04-22T11:31:28;145047.84;;;27.75;29.35
788;BME280;16074;42.708;23.312;2023-04-22T11:33:57;145019.63;;;27.63;29.35
788;BME280;16074;42.708;23.312;2023-04-22T11:36:26;144952.44;;;27.36;30.04
788;BME280;16074;42.708;23.312;2023-04-22T11:38:56;144831.50;;;26.86;30.63
788;BME280;16074;42.708;23.312;2023-04-22T11:41:24;144923.09;;;27.24;30.26
788;BME280;16074;42.708;23.312;2023-04-22T11:43:52;144752.13;;;26.54;30.89
788;BME280;16074;42.708;23.312;2023-04-22T11:46:29;144788.72;;;26.69;30.84
788;BME280;16074;42.708;23.312;2023-04-22T11:49:11;144821.72;;;26.82;31.16
788;BME280;16074;42.708;23.312;2023-04-22T11:51:51;144735.03;;;26.47;31.28
788;BME280;16074;42.708;23.312;2023-04-22T11:54:30;144851.00;;;26.94;31.24
788;BME280;16074;42.708;23.312;2023-04-22T11:57:01;144835.13;;;26.88;30.82
788;BME280;16074;42.708;23.312;2023-04-22T11:59:29;144912.13;;;27.19;31.56
788;BME280;16074;42.708;23.312;2023-04-22T12:01:58;144829.06;;;26.85;30.87
788;BME280;16074;42.708;23.312;2023-04-22T12:04:26;144876.69;;;27.05;30.68
788;BME280;16074;42.708;23.312;2023-04-22T12:06:54;144706.88;;;26.36;31.66
788;BME280;16074;42.708;23.312;2023-04-22T12:09:23;144637.28;;;26.07;32.75
788;BME280;16074;42.708;23.312;2023-04-22T12:11:53;144783.84;;;26.67;32.31
788;BME280;16074;42.708;23.312;2023-04-22T12:14:30;144892.59;;;27.11;31.58
788;BME280;16074;42.708;23.312;2023-04-22T12:17:02;145011.09;;;27.60;30.84
788;BME280;16074;42.708;23.312;2023-04-22T12:19:31;145009.88;;;27.59;30.69
788;BME280;16074;42.708;23.312;2023-04-22T12:21:59;145061.25;;;27.80;30.79
788;BME280;16074;42.708;23.312;2023-04-22T12:24:28;145097.94;;;27.95;30.61
788;BME280;16074;42.708;23.312;2023-04-22T12:26:58;145066.16;;;27.82;30.53
788;BME280;16074;42.708;23.312;2023-04-22T12:29:29;145249.59;;;28.57;29.26
788;BME280;16074;42.708;23.312;2023-04-22T12:31:57;145260.56;;;28.61;29.54
788;BME280;16074;42.708;23.312;2023-04-22T12:34:26;145263.00;;;28.62;29.17
788;BME280;16074;42.708;23.312;2023-04-22T12:36:54;145253.22;;;28.58;29.95
788;BME280;16074;42.708;23.312;2023-04-22T12:39:22;145343.75;;;28.95;29.69
788;BME280;16074;42.708;23.312;2023-04-22T12:41:51;145333.97;;;28.91;30.12
788;BME280;16074;42.708;23.312;2023-04-22T12:44:20;145338.88;;;28.93;29.95
788;BME280;16074;42.708;23.312;2023-04-22T12:46:51;145435.53;;;29.32;28.84
788;BME280;16074;42.708;23.312;2023-04-22T12:49:19;145422.09;;;29.27;28.47
788;BME280;16074;42.708;23.312;2023-04-22T12:51:48;145553.03;;;29.80;28.35
788;BME280;16074;42.708;23.312;2023-04-22T12:54:17;145564.09;;;29.85;27.59
788;BME280;16074;42.708;23.312;2023-04-22T12:56:47;145556.75;;;29.82;27.96
788;BME280;16074;42.708;23.312;2023-04-22T12:59:15;145599.63;;;29.99;28.15
788;BME280;16074;42.708;23.312;2023-04-22T13:01:45;145606.97;;;30.02;28.51
788;BME280;16074;42.708;23.312;2023-04-22T13:04:13;145557.94;;;29.82;28.44
788;BME280;16074;42.708;23.312;2023-04-22T13:06:41;145664.50;;;30.26;28.02
788;BME280;16074;42.708;23.312;2023-04-22T13:09:10;145581.22;;;29.92;27.18
788;BME280;16074;42.708;23.312;2023-04-22T13:11:39;145640.03;;;30.16;26.88
788;BME280;16074;42.708;23.312;2023-04-22T13:14:08;145647.38;;;30.19;26.81
788;BME280;16074;42.708;23.312;2023-04-22T13:16:36;145751.50;;;30.61;26.37
788;BME280;16074;42.708;23.312;2023-04-22T13:19:06;145723.31;;;30.50;26.15
788;BME280;16074;42.708;23.312;2023-04-22T13:21:34;145588.59;;;29.95;26.98